sensor_id;sensor_type;location;lat;lon;timestamp;P1;durP1;ratioP1;P2;durP2;ratioP2
18657;SDS011;9458;50.942;5.074;2024-03-29T00:00:50;3.47;;;0.88;;
18657;SDS011;9458;50.942;5.074;2024-03-29T00:03:17;3.50;;;0.70;;
18657;SDS011;9458;50.942;5.074;2024-03-29T00:05:43;3.42;;;0.90;;
18657;SDS011;9458;50.942;5.074;2024-03-29T00:08:10;4.82;;;0.90;;
18657;SDS011;9458;50.942;5.074;2024-03-29T00:10:36;4.60;;;1.00;;
18657;SDS011;9458;50.942;5.074;2024-03-29T00:13:03;3.60;;;0.82;;
18657;SDS011;9458;50.942;5.074;2024-03-29T00:15:31;2.60;;;0.80;;
18657;SDS011;9458;50.942;5.074;2024-03-29T00:18:06;3.08;;;0.70;;
18657;SDS011;9458;50.942;5.074;2024-03-29T00:20:32;6.50;;;0.93;;
18657;SDS011;9458;50.942;5.074;2024-03-29T00:22:58;4.88;;;0.80;;
18657;SDS011;9458;50.942;5.074;2024-03-29T00:25:25;2.95;;;0.70;;
18657;SDS011;9458;50.942;5.074;2024-03-29T00:27:51;4.30;;;0.90;;
18657;SDS011;9458;50.942;5.074;2024-03-29T00:30:17;4.35;;;1.00;;
18657;SDS011;9458;50.942;5.074;2024-03-29T00:32:44;3.10;;;0.88;;
18657;SDS011;9458;50.942;5.074;2024-03-29T00:35:11;5.13;;;0.90;;
18657;SDS011;9458;50.942;5.074;2024-03-29T00:37:38;5.28;;;0.93;;
18657;SDS011;9458;50.942;5.074;2024-03-29T00:40:05;2.53;;;0.80;;
18657;SDS011;9458;50.942;5.074;2024-03-29T00:42:31;3.45;;;1.00;;
18657;SDS011;9458;50.942;5.074;2024-03-29T00:44:58;3.75;;;0.98;;
18657;SDS011;9458;50.942;5.074;2024-03-29T00:47:24;4.20;;;0.90;;
18657;SDS011;9458;50.942;5.074;2024-03-29T00:49:50;3.35;;;0.68;;
18657;SDS011;9458;50.942;5.074;2024-03-29T00:52:18;7.68;;;0.95;;
18657;SDS011;9458;50.942;5.074;2024-03-29T00:54:44;4.88;;;0.80;;
18657;SDS011;9458;50.942;5.074;2024-03-29T00:57:10;2.50;;;0.70;;
18657;SDS011;9458;50.942;5.074;2024-03-29T00:59:37;4.25;;;0.90;;
18657;SDS011;9458;50.942;5.074;2024-03-29T01:02:03;5.30;;;0.85;;
18657;SDS011;9458;50.942;5.074;2024-03-29T01:04:30;4.63;;;0.80;;
18657;SDS011;9458;50.942;5.074;2024-03-29T01:06:56;5.93;;;0.80;;
18657;SDS011;9458;50.942;5.074;2024-03-29T01:09:23;1.85;;;0.80;;
18657;SDS011;9458;50.942;5.074;2024-03-29T01:11:50;3.33;;;0.93;;
18657;SDS011;9458;50.942;5.074;2024-03-29T01:14:16;6.45;;;0.90;;
18657;SDS011;9458;50.942;5.074;2024-03-29T01:16:42;3.67;;;0.75;;
18657;SDS011;9458;50.942;5.074;2024-03-29T01:19:08;2.13;;;0.80;;
18657;SDS011;9458;50.942;5.074;2024-03-29T01:21:35;3.00;;;0.90;;
18657;SDS011;9458;50.942;5.074;2024-03-29T01:24:01;3.25;;;0.80;;
18657;SDS011;9458;50.942;5.074;2024-03-29T01:26:28;4.15;;;0.80;;
18657;SDS011;9458;50.942;5.074;2024-03-29T01:28:54;3.28;;;0.90;;
18657;SDS011;9458;50.942;5.074;2024-03-29T01:31:21;4.88;;;0.80;;
18657;SDS011;9458;50.942;5.074;2024-03-29T01:33:48;3.42;;;0.77;;
18657;SDS011;9458;50.942;5.074;2024-03-29T01:36:17;5.18;;;0.90;;
18657;SDS011;9458;50.942;5.074;2024-03-29T01:38:43;1.38;;;0.63;;
18657;SDS011;9458;50.942;5.074;2024-03-29T01:41:09;3.28;;;0.82;;
18657;SDS011;9458;50.942;5.074;2024-03-29T01:43:36;1.40;;;0.60;;
18657;SDS011;9458;50.942;5.074;2024-03-29T01:46:04;3.25;;;0.90;;
18657;SDS011;9458;50.942;5.074;2024-03-29T01:48:33;2.35;;;0.88;;
18657;SDS011;9458;50.942;5.074;2024-03-29T01:51:00;5.03;;;0.70;;
18657;SDS011;9458;50.942;5.074;2024-03-29T01:53:28;1.90;;;0.60;;
18657;SDS011;9458;50.942;5.074;2024-03-29T01:55:56;0.68;;;0.60;;
18657;SDS011;9458;50.942;5.074;2024-03-29T01:58:26;3.33;;;0.80;;
18657;SDS011;9458;50.942;5.074;2024-03-29T02:00:56;2.92;;;0.73;;
18657;SDS011;9458;50.942;5.074;2024-03-29T02:03:24;5.00;;;0.68;;
18657;SDS011;9458;50.942;5.074;2024-03-29T02:05:51;0.95;;;0.60;;
18657;SDS011;9458;50.942;5.074;2024-03-29T02:10:47;2.03;;;0.63;;
18657;SDS011;9458;50.942;5.074;2024-03-29T02:13:14;2.28;;;0.70;;
18657;SDS011;9458;50.942;5.074;2024-03-29T02:15:41;1.70;;;0.52;;
18657;SDS011;9458;50.942;5.074;2024-03-29T02:18:09;3.08;;;0.60;;
18657;SDS011;9458;50.942;5.074;2024-03-29T02:20:36;2.05;;;0.90;;
18657;SDS011;9458;50.942;5.074;2024-03-29T02:23:06;3.97;;;0.70;;
18657;SDS011;9458;50.942;5.074;2024-03-29T02:25:36;2.28;;;0.60;;
18657;SDS011;9458;50.942;5.074;2024-03-29T02:28:04;1.95;;;0.63;;
18657;SDS011;9458;50.942;5.074;2024-03-29T02:30:32;2.65;;;0.63;;
18657;SDS011;9458;50.942;5.074;2024-03-29T02:32:59;2.95;;;0.70;;
18657;SDS011;9458;50.942;5.074;2024-03-29T02:35:26;1.38;;;0.63;;
18657;SDS011;9458;50.942;5.074;2024-03-29T02:37:55;2.30;;;0.60;;
18657;SDS011;9458;50.942;5.074;2024-03-29T02:40:22;2.20;;;0.60;;
18657;SDS011;9458;50.942;5.074;2024-03-29T02:42:50;3.83;;;0.77;;
18657;SDS011;9458;50.942;5.074;2024-03-29T02:45:17;1.77;;;0.80;;
18657;SDS011;9458;50.942;5.074;2024-03-29T02:47:44;1.65;;;0.60;;
18657;SDS011;9458;50.942;5.074;2024-03-29T02:50:12;2.83;;;0.70;;
18657;SDS011;9458;50.942;5.074;2024-03-29T02:52:39;1.27;;;0.52;;
18657;SDS011;9458;50.942;5.074;2024-03-29T02:55:06;3.08;;;0.75;;
18657;SDS011;9458;50.942;5.074;2024-03-29T02:57:33;3.15;;;0.60;;
18657;SDS011;9458;50.942;5.074;2024-03-29T03:00:01;6.65;;;0.93;;
18657;SDS011;9458;50.942;5.074;2024-03-29T03:02:28;2.90;;;0.70;;
18657;SDS011;9458;50.942;5.074;2024-03-29T03:04:55;1.67;;;0.63;;
18657;SDS011;9458;50.942;5.074;2024-03-29T03:07:21;1.02;;;0.60;;
18657;SDS011;9458;50.942;5.074;2024-03-29T03:10:06;1.67;;;0.60;;
18657;SDS011;9458;50.942;5.074;2024-03-29T03:12:51;0.95;;;0.50;;
18657;SDS011;9458;50.942;5.074;2024-03-29T03:15:19;4.50;;;0.77;;
18657;SDS011;9458;50.942;5.074;2024-03-29T03:17:46;2.88;;;0.70;;
18657;SDS011;9458;50.942;5.074;2024-03-29T03:20:12;5.95;;;0.80;;
18657;SDS011;9458;50.942;5.074;2024-03-29T03:22:41;3.05;;;0.60;;
18657;SDS011;9458;50.942;5.074;2024-03-29T03:25:07;2.80;;;0.70;;
18657;SDS011;9458;50.942;5.074;2024-03-29T03:27:35;1.63;;;0.57;;
18657;SDS011;9458;50.942;5.074;2024-03-29T03:30:01;4.30;;;0.77;;
18657;SDS011;9458;50.942;5.074;2024-03-29T03:32:29;3.08;;;0.70;;
18657;SDS011;9458;50.942;5.074;2024-03-29T03:34:55;2.35;;;0.80;;
18657;SDS011;9458;50.942;5.074;2024-03-29T03:37:22;1.48;;;0.63;;
18657;SDS011;9458;50.942;5.074;2024-03-29T03:39:48;2.90;;;0.70;;
18657;SDS011;9458;50.942;5.074;2024-03-29T03:42:15;3.40;;;1.05;;
18657;SDS011;9458;50.942;5.074;2024-03-29T03:44:41;3.85;;;1.15;;
18657;SDS011;9458;50.942;5.074;2024-03-29T03:47:09;3.92;;;0.93;;
18657;SDS011;9458;50.942;5.074;2024-03-29T03:49:36;3.00;;;0.90;;
18657;SDS011;9458;50.942;5.074;2024-03-29T03:52:03;6.13;;;1.10;;
18657;SDS011;9458;50.942;5.074;2024-03-29T03:54:30;2.28;;;0.65;;
18657;SDS011;9458;50.942;5.074;2024-03-29T03:56:57;4.88;;;0.70;;
18657;SDS011;9458;50.942;5.074;2024-03-29T03:59:23;3.50;;;0.85;;
18657;SDS011;9458;50.942;5.074;2024-03-29T04:01:50;4.00;;;0.65;;
18657;SDS011;9458;50.942;5.074;2024-03-29T04:04:16;2.38;;;0.85;;
18657;SDS011;9458;50.942;5.074;2024-03-29T04:06:45;2.67;;;0.77;;
18657;SDS011;9458;50.942;5.074;2024-03-29T04:09:11;5.00;;;0.80;;
18657;SDS011;9458;50.942;5.074;2024-03-29T04:11:41;3.22;;;0.80;;
18657;SDS011;9458;50.942;5.074;2024-03-29T04:14:07;3.10;;;0.80;;
18657;SDS011;9458;50.942;5.074;2024-03-29T04:16:34;8.02;;;0.98;;
18657;SDS011;9458;50.942;5.074;2024-03-29T04:19:00;3.45;;;1.10;;
18657;SDS011;9458;50.942;5.074;2024-03-29T04:21:27;0.73;;;0.63;;
18657;SDS011;9458;50.942;5.074;2024-03-29T04:23:58;6.13;;;0.80;;
18657;SDS011;9458;50.942;5.074;2024-03-29T04:26:25;4.22;;;0.90;;
18657;SDS011;9458;50.942;5.074;2024-03-29T04:28:51;2.38;;;0.80;;
18657;SDS011;9458;50.942;5.074;2024-03-29T04:31:19;4.25;;;1.00;;
18657;SDS011;9458;50.942;5.074;2024-03-29T04:33:45;3.95;;;0.80;;
18657;SDS011;9458;50.942;5.074;2024-03-29T04:36:12;2.90;;;0.77;;
18657;SDS011;9458;50.942;5.074;2024-03-29T04:38:38;2.15;;;0.65;;
18657;SDS011;9458;50.942;5.074;2024-03-29T04:41:07;5.07;;;0.90;;
18657;SDS011;9458;50.942;5.074;2024-03-29T04:43:34;2.45;;;1.08;;
18657;SDS011;9458;50.942;5.074;2024-03-29T04:46:02;2.03;;;0.73;;
18657;SDS011;9458;50.942;5.074;2024-03-29T04:48:30;4.25;;;1.00;;
18657;SDS011;9458;50.942;5.074;2024-03-29T04:50:57;2.50;;;0.82;;
18657;SDS011;9458;50.942;5.074;2024-03-29T04:53:25;2.83;;;0.68;;
18657;SDS011;9458;50.942;5.074;2024-03-29T04:55:55;3.03;;;0.80;;
18657;SDS011;9458;50.942;5.074;2024-03-29T04:58:23;2.50;;;1.13;;
18657;SDS011;9458;50.942;5.074;2024-03-29T05:00:51;5.97;;;0.90;;
18657;SDS011;9458;50.942;5.074;2024-03-29T05:03:19;2.45;;;0.80;;
18657;SDS011;9458;50.942;5.074;2024-03-29T05:05:47;2.00;;;0.80;;
18657;SDS011;9458;50.942;5.074;2024-03-29T05:08:16;2.13;;;0.70;;
18657;SDS011;9458;50.942;5.074;2024-03-29T05:10:44;3.67;;;0.83;;
18657;SDS011;9458;50.942;5.074;2024-03-29T05:13:12;5.40;;;1.00;;
18657;SDS011;9458;50.942;5.074;2024-03-29T05:15:41;1.77;;;1.00;;
18657;SDS011;9458;50.942;5.074;2024-03-29T05:18:09;2.58;;;1.10;;
18657;SDS011;9458;50.942;5.074;2024-03-29T05:20:38;3.17;;;1.00;;
18657;SDS011;9458;50.942;5.074;2024-03-29T05:23:06;4.38;;;0.90;;
18657;SDS011;9458;50.942;5.074;2024-03-29T05:25:33;2.13;;;1.05;;
18657;SDS011;9458;50.942;5.074;2024-03-29T05:28:00;2.90;;;1.08;;
18657;SDS011;9458;50.942;5.074;2024-03-29T05:30:29;4.22;;;1.02;;
18657;SDS011;9458;50.942;5.074;2024-03-29T05:32:57;2.25;;;1.00;;
18657;SDS011;9458;50.942;5.074;2024-03-29T05:35:24;5.07;;;1.33;;
18657;SDS011;9458;50.942;5.074;2024-03-29T05:37:52;3.80;;;1.67;;
18657;SDS011;9458;50.942;5.074;2024-03-29T05:40:20;5.78;;;1.45;;
18657;SDS011;9458;50.942;5.074;2024-03-29T05:42:50;3.92;;;1.48;;
18657;SDS011;9458;50.942;5.074;2024-03-29T05:45:25;3.60;;;1.40;;
18657;SDS011;9458;50.942;5.074;2024-03-29T05:47:53;3.92;;;1.05;;
18657;SDS011;9458;50.942;5.074;2024-03-29T05:50:23;4.68;;;1.40;;
18657;SDS011;9458;50.942;5.074;2024-03-29T05:52:51;4.03;;;1.25;;
18657;SDS011;9458;50.942;5.074;2024-03-29T05:55:18;2.65;;;1.20;;
18657;SDS011;9458;50.942;5.074;2024-03-29T05:57:45;2.42;;;1.30;;
18657;SDS011;9458;50.942;5.074;2024-03-29T06:00:14;4.47;;;1.35;;
18657;SDS011;9458;50.942;5.074;2024-03-29T06:02:41;3.08;;;1.00;;
18657;SDS011;9458;50.942;5.074;2024-03-29T06:05:10;3.80;;;1.00;;
18657;SDS011;9458;50.942;5.074;2024-03-29T06:07:38;3.90;;;1.10;;
18657;SDS011;9458;50.942;5.074;2024-03-29T06:10:06;2.70;;;0.90;;
18657;SDS011;9458;50.942;5.074;2024-03-29T06:15:04;1.92;;;0.90;;
18657;SDS011;9458;50.942;5.074;2024-03-29T06:17:49;6.28;;;1.30;;
18657;SDS011;9458;50.942;5.074;2024-03-29T06:20:16;3.88;;;1.10;;
18657;SDS011;9458;50.942;5.074;2024-03-29T06:22:45;3.45;;;1.10;;
18657;SDS011;9458;50.942;5.074;2024-03-29T06:25:12;3.10;;;1.27;;
18657;SDS011;9458;50.942;5.074;2024-03-29T06:27:40;2.53;;;1.20;;
18657;SDS011;9458;50.942;5.074;2024-03-29T06:30:12;5.22;;;1.10;;
18657;SDS011;9458;50.942;5.074;2024-03-29T06:35:10;2.72;;;1.08;;
18657;SDS011;9458;50.942;5.074;2024-03-29T06:37:37;3.47;;;1.08;;
18657;SDS011;9458;50.942;5.074;2024-03-29T06:40:07;3.58;;;1.00;;
18657;SDS011;9458;50.942;5.074;2024-03-29T06:42:35;4.53;;;1.35;;
18657;SDS011;9458;50.942;5.074;2024-03-29T06:45:03;1.23;;;0.90;;
18657;SDS011;9458;50.942;5.074;2024-03-29T06:47:31;2.80;;;1.13;;
18657;SDS011;9458;50.942;5.074;2024-03-29T06:49:58;3.38;;;1.02;;
18657;SDS011;9458;50.942;5.074;2024-03-29T06:52:26;4.30;;;1.10;;
18657;SDS011;9458;50.942;5.074;2024-03-29T06:54:54;5.10;;;1.17;;
18657;SDS011;9458;50.942;5.074;2024-03-29T06:57:22;2.08;;;1.20;;
18657;SDS011;9458;50.942;5.074;2024-03-29T06:59:51;5.32;;;1.40;;
18657;SDS011;9458;50.942;5.074;2024-03-29T07:02:18;3.22;;;1.15;;
18657;SDS011;9458;50.942;5.074;2024-03-29T07:04:46;2.85;;;1.00;;
18657;SDS011;9458;50.942;5.074;2024-03-29T07:07:13;3.72;;;1.20;;
18657;SDS011;9458;50.942;5.074;2024-03-29T07:09:40;2.97;;;1.00;;
18657;SDS011;9458;50.942;5.074;2024-03-29T07:12:08;3.60;;;0.90;;
18657;SDS011;9458;50.942;5.074;2024-03-29T07:14:37;1.80;;;1.10;;
18657;SDS011;9458;50.942;5.074;2024-03-29T07:17:05;5.25;;;1.10;;
18657;SDS011;9458;50.942;5.074;2024-03-29T07:19:32;2.67;;;0.90;;
18657;SDS011;9458;50.942;5.074;2024-03-29T07:22:00;2.63;;;1.10;;
18657;SDS011;9458;50.942;5.074;2024-03-29T07:24:27;3.30;;;0.93;;
18657;SDS011;9458;50.942;5.074;2024-03-29T07:26:54;2.28;;;1.10;;
18657;SDS011;9458;50.942;5.074;2024-03-29T07:29:21;4.60;;;1.30;;
18657;SDS011;9458;50.942;5.074;2024-03-29T07:31:50;5.03;;;1.50;;
18657;SDS011;9458;50.942;5.074;2024-03-29T07:34:19;2.13;;;1.10;;
18657;SDS011;9458;50.942;5.074;2024-03-29T07:36:46;4.07;;;1.42;;
18657;SDS011;9458;50.942;5.074;2024-03-29T07:39:13;3.20;;;1.00;;
18657;SDS011;9458;50.942;5.074;2024-03-29T07:41:41;2.60;;;1.27;;
18657;SDS011;9458;50.942;5.074;2024-03-29T07:44:08;3.30;;;1.20;;
18657;SDS011;9458;50.942;5.074;2024-03-29T07:46:36;2.70;;;1.35;;
18657;SDS011;9458;50.942;5.074;2024-03-29T07:49:06;2.15;;;1.10;;
18657;SDS011;9458;50.942;5.074;2024-03-29T07:51:34;3.67;;;1.10;;
18657;SDS011;9458;50.942;5.074;2024-03-29T07:54:01;4.65;;;1.48;;
18657;SDS011;9458;50.942;5.074;2024-03-29T07:56:29;4.63;;;1.50;;
18657;SDS011;9458;50.942;5.074;2024-03-29T07:58:56;5.10;;;1.50;;
18657;SDS011;9458;50.942;5.074;2024-03-29T08:01:23;2.72;;;1.35;;
18657;SDS011;9458;50.942;5.074;2024-03-29T08:03:52;3.17;;;1.60;;
18657;SDS011;9458;50.942;5.074;2024-03-29T08:06:21;4.28;;;1.52;;
18657;SDS011;9458;50.942;5.074;2024-03-29T08:08:49;4.18;;;1.70;;
18657;SDS011;9458;50.942;5.074;2024-03-29T08:11:16;5.65;;;2.03;;
18657;SDS011;9458;50.942;5.074;2024-03-29T08:13:43;4.53;;;1.70;;
18657;SDS011;9458;50.942;5.074;2024-03-29T08:16:11;2.97;;;1.42;;
18657;SDS011;9458;50.942;5.074;2024-03-29T08:18:38;4.90;;;1.83;;
18657;SDS011;9458;50.942;5.074;2024-03-29T08:21:05;4.45;;;1.85;;
18657;SDS011;9458;50.942;5.074;2024-03-29T08:23:39;4.95;;;1.50;;
18657;SDS011;9458;50.942;5.074;2024-03-29T08:26:06;3.72;;;1.40;;
18657;SDS011;9458;50.942;5.074;2024-03-29T08:28:34;4.03;;;1.42;;
18657;SDS011;9458;50.942;5.074;2024-03-29T08:31:04;3.08;;;1.40;;
18657;SDS011;9458;50.942;5.074;2024-03-29T08:33:34;3.55;;;1.88;;
18657;SDS011;9458;50.942;5.074;2024-03-29T08:36:03;5.80;;;2.10;;
18657;SDS011;9458;50.942;5.074;2024-03-29T08:38:31;3.57;;;1.67;;
18657;SDS011;9458;50.942;5.074;2024-03-29T08:40:59;6.95;;;1.90;;
18657;SDS011;9458;50.942;5.074;2024-03-29T08:43:27;2.75;;;1.70;;
18657;SDS011;9458;50.942;5.074;2024-03-29T08:45:54;4.50;;;1.98;;
18657;SDS011;9458;50.942;5.074;2024-03-29T08:48:22;4.22;;;1.85;;
18657;SDS011;9458;50.942;5.074;2024-03-29T08:50:50;3.47;;;1.88;;
18657;SDS011;9458;50.942;5.074;2024-03-29T08:53:18;3.60;;;1.67;;
18657;SDS011;9458;50.942;5.074;2024-03-29T08:55:46;2.60;;;1.60;;
18657;SDS011;9458;50.942;5.074;2024-03-29T08:58:16;1.98;;;1.40;;
18657;SDS011;9458;50.942;5.074;2024-03-29T09:00:51;3.03;;;1.45;;
18657;SDS011;9458;50.942;5.074;2024-03-29T09:03:19;3.78;;;1.27;;
18657;SDS011;9458;50.942;5.074;2024-03-29T09:05:47;2.17;;;1.60;;
18657;SDS011;9458;50.942;5.074;2024-03-29T09:08:14;3.10;;;1.35;;
18657;SDS011;9458;50.942;5.074;2024-03-29T09:10:42;3.53;;;1.30;;
18657;SDS011;9458;50.942;5.074;2024-03-29T09:13:09;4.25;;;1.42;;
18657;SDS011;9458;50.942;5.074;2024-03-29T09:15:38;3.08;;;1.40;;
18657;SDS011;9458;50.942;5.074;2024-03-29T09:18:05;3.83;;;1.50;;
18657;SDS011;9458;50.942;5.074;2024-03-29T09:20:42;3.75;;;1.30;;
18657;SDS011;9458;50.942;5.074;2024-03-29T09:23:10;2.90;;;1.30;;
18657;SDS011;9458;50.942;5.074;2024-03-29T09:25:41;7.70;;;1.40;;
18657;SDS011;9458;50.942;5.074;2024-03-29T09:28:08;3.50;;;1.42;;
18657;SDS011;9458;50.942;5.074;2024-03-29T09:30:36;3.13;;;1.50;;
18657;SDS011;9458;50.942;5.074;2024-03-29T09:33:04;1.60;;;1.05;;
18657;SDS011;9458;50.942;5.074;2024-03-29T09:35:34;1.58;;;1.00;;
18657;SDS011;9458;50.942;5.074;2024-03-29T09:38:02;5.68;;;1.33;;
18657;SDS011;9458;50.942;5.074;2024-03-29T09:40:29;2.28;;;1.30;;
18657;SDS011;9458;50.942;5.074;2024-03-29T09:42:59;1.95;;;1.08;;
18657;SDS011;9458;50.942;5.074;2024-03-29T09:45:28;6.63;;;1.30;;
18657;SDS011;9458;50.942;5.074;2024-03-29T09:47:59;1.95;;;1.00;;
18657;SDS011;9458;50.942;5.074;2024-03-29T09:50:30;1.85;;;1.08;;
18657;SDS011;9458;50.942;5.074;2024-03-29T09:55:25;2.38;;;1.20;;
18657;SDS011;9458;50.942;5.074;2024-03-29T09:57:54;4.78;;;1.10;;
18657;SDS011;9458;50.942;5.074;2024-03-29T10:00:22;1.88;;;1.10;;
18657;SDS011;9458;50.942;5.074;2024-03-29T10:02:50;3.78;;;1.20;;
18657;SDS011;9458;50.942;5.074;2024-03-29T10:05:22;3.55;;;1.00;;
18657;SDS011;9458;50.942;5.074;2024-03-29T10:07:51;2.95;;;1.00;;
18657;SDS011;9458;50.942;5.074;2024-03-29T10:10:19;1.83;;;1.10;;
18657;SDS011;9458;50.942;5.074;2024-03-29T10:12:47;5.13;;;1.17;;
18657;SDS011;9458;50.942;5.074;2024-03-29T10:15:14;2.00;;;1.10;;
18657;SDS011;9458;50.942;5.074;2024-03-29T10:17:44;2.47;;;1.10;;
18657;SDS011;9458;50.942;5.074;2024-03-29T10:20:15;2.05;;;1.10;;
18657;SDS011;9458;50.942;5.074;2024-03-29T10:22:44;2.35;;;0.90;;
18657;SDS011;9458;50.942;5.074;2024-03-29T10:25:14;2.42;;;0.98;;
18657;SDS011;9458;50.942;5.074;2024-03-29T10:27:41;7.53;;;1.42;;
18657;SDS011;9458;50.942;5.074;2024-03-29T10:30:09;4.05;;;1.10;;
18657;SDS011;9458;50.942;5.074;2024-03-29T10:32:42;2.28;;;0.90;;
18657;SDS011;9458;50.942;5.074;2024-03-29T10:35:10;1.05;;;0.82;;
18657;SDS011;9458;50.942;5.074;2024-03-29T10:37:37;4.88;;;1.00;;
18657;SDS011;9458;50.942;5.074;2024-03-29T10:40:07;2.90;;;1.10;;
18657;SDS011;9458;50.942;5.074;2024-03-29T10:42:37;2.55;;;0.93;;
18657;SDS011;9458;50.942;5.074;2024-03-29T10:45:06;2.75;;;0.90;;
18657;SDS011;9458;50.942;5.074;2024-03-29T10:47:34;2.97;;;0.90;;
18657;SDS011;9458;50.942;5.074;2024-03-29T10:50:01;2.30;;;1.10;;
18657;SDS011;9458;50.942;5.074;2024-03-29T10:54:57;3.33;;;1.08;;
18657;SDS011;9458;50.942;5.074;2024-03-29T10:57:25;2.03;;;0.90;;
18657;SDS011;9458;50.942;5.074;2024-03-29T11:00:00;2.38;;;0.90;;
18657;SDS011;9458;50.942;5.074;2024-03-29T11:02:34;2.25;;;0.85;;
18657;SDS011;9458;50.942;5.074;2024-03-29T11:05:09;1.70;;;0.90;;
18657;SDS011;9458;50.942;5.074;2024-03-29T11:07:39;3.10;;;0.88;;
18657;SDS011;9458;50.942;5.074;2024-03-29T11:10:10;1.45;;;0.80;;
18657;SDS011;9458;50.942;5.074;2024-03-29T11:12:45;1.48;;;0.73;;
18657;SDS011;9458;50.942;5.074;2024-03-29T11:15:28;2.70;;;0.80;;
18657;SDS011;9458;50.942;5.074;2024-03-29T11:17:56;1.85;;;0.90;;
18657;SDS011;9458;50.942;5.074;2024-03-29T11:20:25;0.97;;;0.77;;
18657;SDS011;9458;50.942;5.074;2024-03-29T11:23:02;2.80;;;0.80;;
18657;SDS011;9458;50.942;5.074;2024-03-29T11:25:41;0.75;;;0.70;;
18657;SDS011;9458;50.942;5.074;2024-03-29T11:28:09;2.95;;;0.82;;
18657;SDS011;9458;50.942;5.074;2024-03-29T11:30:45;2.40;;;0.70;;
18657;SDS011;9458;50.942;5.074;2024-03-29T11:33:29;2.75;;;0.80;;
18657;SDS011;9458;50.942;5.074;2024-03-29T11:36:03;1.90;;;0.70;;
18657;SDS011;9458;50.942;5.074;2024-03-29T11:38:37;2.03;;;0.70;;
18657;SDS011;9458;50.942;5.074;2024-03-29T11:41:05;3.17;;;0.90;;
18657;SDS011;9458;50.942;5.074;2024-03-29T11:46:03;2.33;;;0.60;;
18657;SDS011;9458;50.942;5.074;2024-03-29T11:48:32;1.33;;;0.60;;
18657;SDS011;9458;50.942;5.074;2024-03-29T11:50:59;1.05;;;0.60;;
18657;SDS011;9458;50.942;5.074;2024-03-29T11:53:28;6.75;;;0.70;;
18657;SDS011;9458;50.942;5.074;2024-03-29T11:55:56;1.00;;;0.50;;
18657;SDS011;9458;50.942;5.074;2024-03-29T11:58:24;2.13;;;0.60;;
18657;SDS011;9458;50.942;5.074;2024-03-29T12:00:53;2.05;;;0.60;;
18657;SDS011;9458;50.942;5.074;2024-03-29T12:03:24;1.23;;;0.60;;
18657;SDS011;9458;50.942;5.074;2024-03-29T12:05:52;0.80;;;0.52;;
18657;SDS011;9458;50.942;5.074;2024-03-29T12:08:23;2.88;;;0.60;;
18657;SDS011;9458;50.942;5.074;2024-03-29T12:10:51;2.65;;;0.68;;
18657;SDS011;9458;50.942;5.074;2024-03-29T12:13:18;1.30;;;0.50;;
18657;SDS011;9458;50.942;5.074;2024-03-29T12:15:45;1.42;;;0.65;;
18657;SDS011;9458;50.942;5.074;2024-03-29T12:18:12;0.50;;;0.50;;
18657;SDS011;9458;50.942;5.074;2024-03-29T12:20:43;3.78;;;0.90;;
18657;SDS011;9458;50.942;5.074;2024-03-29T12:23:15;0.85;;;0.47;;
18657;SDS011;9458;50.942;5.074;2024-03-29T12:25:43;0.73;;;0.50;;
18657;SDS011;9458;50.942;5.074;2024-03-29T12:28:11;1.52;;;0.52;;
18657;SDS011;9458;50.942;5.074;2024-03-29T12:30:40;1.27;;;0.50;;
18657;SDS011;9458;50.942;5.074;2024-03-29T12:33:08;2.80;;;0.73;;
18657;SDS011;9458;50.942;5.074;2024-03-29T12:35:39;1.45;;;0.52;;
18657;SDS011;9458;50.942;5.074;2024-03-29T12:38:10;2.13;;;0.50;;
18657;SDS011;9458;50.942;5.074;2024-03-29T12:43:09;1.08;;;0.52;;
18657;SDS011;9458;50.942;5.074;2024-03-29T12:45:37;1.75;;;0.60;;
18657;SDS011;9458;50.942;5.074;2024-03-29T12:48:10;1.60;;;0.60;;
18657;SDS011;9458;50.942;5.074;2024-03-29T12:50:39;2.90;;;0.73;;
18657;SDS011;9458;50.942;5.074;2024-03-29T12:53:09;1.58;;;0.70;;
18657;SDS011;9458;50.942;5.074;2024-03-29T12:55:39;1.02;;;0.57;;
18657;SDS011;9458;50.942;5.074;2024-03-29T12:58:10;2.80;;;0.70;;
18657;SDS011;9458;50.942;5.074;2024-03-29T13:00:38;1.63;;;0.70;;
18657;SDS011;9458;50.942;5.074;2024-03-29T13:03:06;1.13;;;0.50;;
18657;SDS011;9458;50.942;5.074;2024-03-29T13:05:34;0.90;;;0.60;;
18657;SDS011;9458;50.942;5.074;2024-03-29T13:08:05;0.93;;;0.50;;
18657;SDS011;9458;50.942;5.074;2024-03-29T13:10:35;2.63;;;0.70;;
18657;SDS011;9458;50.942;5.074;2024-03-29T13:13:03;2.90;;;0.80;;
18657;SDS011;9458;50.942;5.074;2024-03-29T13:15:31;1.40;;;0.70;;
18657;SDS011;9458;50.942;5.074;2024-03-29T13:17:59;2.08;;;0.40;;
18657;SDS011;9458;50.942;5.074;2024-03-29T13:20:27;1.42;;;0.55;;
18657;SDS011;9458;50.942;5.074;2024-03-29T13:22:58;0.68;;;0.50;;
18657;SDS011;9458;50.942;5.074;2024-03-29T13:25:26;5.75;;;0.70;;
18657;SDS011;9458;50.942;5.074;2024-03-29T13:27:59;0.95;;;0.60;;
18657;SDS011;9458;50.942;5.074;2024-03-29T13:30:29;0.85;;;0.60;;
18657;SDS011;9458;50.942;5.074;2024-03-29T13:32:56;0.65;;;0.60;;
18657;SDS011;9458;50.942;5.074;2024-03-29T13:35:24;0.82;;;0.70;;
18657;SDS011;9458;50.942;5.074;2024-03-29T13:37:51;1.85;;;0.65;;
18657;SDS011;9458;50.942;5.074;2024-03-29T13:40:20;2.50;;;0.82;;
18657;SDS011;9458;50.942;5.074;2024-03-29T13:42:49;0.70;;;0.60;;
18657;SDS011;9458;50.942;5.074;2024-03-29T13:45:18;1.05;;;0.60;;
18657;SDS011;9458;50.942;5.074;2024-03-29T13:47:45;0.85;;;0.73;;
18657;SDS011;9458;50.942;5.074;2024-03-29T13:50:13;1.38;;;0.68;;
18657;SDS011;9458;50.942;5.074;2024-03-29T13:52:41;2.28;;;0.70;;
18657;SDS011;9458;50.942;5.074;2024-03-29T13:55:09;2.00;;;0.80;;
18657;SDS011;9458;50.942;5.074;2024-03-29T13:57:36;0.90;;;0.60;;
18657;SDS011;9458;50.942;5.074;2024-03-29T14:00:04;2.05;;;0.77;;
18657;SDS011;9458;50.942;5.074;2024-03-29T14:02:34;1.08;;;0.70;;
18657;SDS011;9458;50.942;5.074;2024-03-29T14:05:01;1.17;;;0.75;;
18657;SDS011;9458;50.942;5.074;2024-03-29T14:07:28;3.20;;;0.80;;
18657;SDS011;9458;50.942;5.074;2024-03-29T14:09:55;0.65;;;0.65;;
18657;SDS011;9458;50.942;5.074;2024-03-29T14:12:23;0.75;;;0.60;;
18657;SDS011;9458;50.942;5.074;2024-03-29T14:14:51;0.70;;;0.60;;
18657;SDS011;9458;50.942;5.074;2024-03-29T14:17:18;2.05;;;0.70;;
18657;SDS011;9458;50.942;5.074;2024-03-29T14:19:48;2.03;;;0.80;;
18657;SDS011;9458;50.942;5.074;2024-03-29T14:22:17;1.58;;;0.80;;
18657;SDS011;9458;50.942;5.074;2024-03-29T14:24:45;1.10;;;0.70;;
18657;SDS011;9458;50.942;5.074;2024-03-29T14:27:12;1.20;;;0.65;;
18657;SDS011;9458;50.942;5.074;2024-03-29T14:29:40;2.40;;;0.70;;
18657;SDS011;9458;50.942;5.074;2024-03-29T14:32:10;2.00;;;0.80;;
18657;SDS011;9458;50.942;5.074;2024-03-29T14:34:37;1.90;;;0.80;;
18657;SDS011;9458;50.942;5.074;2024-03-29T14:37:11;0.80;;;0.60;;
18657;SDS011;9458;50.942;5.074;2024-03-29T14:39:40;1.42;;;0.85;;
18657;SDS011;9458;50.942;5.074;2024-03-29T14:42:09;1.95;;;0.70;;
18657;SDS011;9458;50.942;5.074;2024-03-29T14:44:47;2.03;;;0.90;;
18657;SDS011;9458;50.942;5.074;2024-03-29T14:47:14;1.27;;;0.70;;
18657;SDS011;9458;50.942;5.074;2024-03-29T14:49:42;3.88;;;0.85;;
18657;SDS011;9458;50.942;5.074;2024-03-29T14:52:11;1.42;;;0.65;;
18657;SDS011;9458;50.942;5.074;2024-03-29T14:54:38;0.70;;;0.68;;
18657;SDS011;9458;50.942;5.074;2024-03-29T14:57:05;1.77;;;0.93;;
18657;SDS011;9458;50.942;5.074;2024-03-29T14:59:33;0.70;;;0.70;;
18657;SDS011;9458;50.942;5.074;2024-03-29T15:02:02;0.68;;;0.65;;
18657;SDS011;9458;50.942;5.074;2024-03-29T15:04:36;0.85;;;0.80;;
18657;SDS011;9458;50.942;5.074;2024-03-29T15:07:03;2.10;;;0.70;;
18657;SDS011;9458;50.942;5.074;2024-03-29T15:09:32;2.80;;;0.80;;
18657;SDS011;9458;50.942;5.074;2024-03-29T15:14:27;2.45;;;0.80;;
18657;SDS011;9458;50.942;5.074;2024-03-29T15:16:54;2.10;;;0.80;;
18657;SDS011;9458;50.942;5.074;2024-03-29T15:19:21;2.63;;;0.82;;
18657;SDS011;9458;50.942;5.074;2024-03-29T15:21:49;1.85;;;0.88;;
18657;SDS011;9458;50.942;5.074;2024-03-29T15:24:16;2.28;;;0.90;;
18657;SDS011;9458;50.942;5.074;2024-03-29T15:26:45;1.88;;;0.90;;